sensor_id;sensor_type;location;lat;lon;timestamp;P1;durP1;ratioP1;P2;durP2;ratioP2
63434;SDS011;68814;50.872;5.306;2023-06-14T00:00:40;9.18;;;5.30;;
63434;SDS011;68814;50.872;5.306;2023-06-14T00:03:07;10.02;;;5.70;;
63434;SDS011;68814;50.872;5.306;2023-06-14T00:05:36;12.77;;;6.30;;
63434;SDS011;68814;50.872;5.306;2023-06-14T00:08:08;9.10;;;5.93;;
63434;SDS011;68814;50.872;5.306;2023-06-14T00:10:38;12.68;;;6.22;;
63434;SDS011;68814;50.872;5.306;2023-06-14T00:13:06;6.70;;;5.50;;
63434;SDS011;68814;50.872;5.306;2023-06-14T00:15:34;8.02;;;5.15;;
63434;SDS011;68814;50.872;5.306;2023-06-14T00:18:01;9.85;;;5.93;;
63434;SDS011;68814;50.872;5.306;2023-06-14T00:20:27;7.30;;;5.72;;
63434;SDS011;68814;50.872;5.306;2023-06-14T00:22:53;12.48;;;6.22;;
63434;SDS011;68814;50.872;5.306;2023-06-14T00:25:25;6.85;;;5.63;;
63434;SDS011;68814;50.872;5.306;2023-06-14T00:27:51;8.35;;;6.28;;
63434;SDS011;68814;50.872;5.306;2023-06-14T00:30:17;10.07;;;5.60;;
63434;SDS011;68814;50.872;5.306;2023-06-14T00:32:43;11.35;;;6.65;;
63434;SDS011;68814;50.872;5.306;2023-06-14T00:35:09;8.20;;;5.97;;
63434;SDS011;68814;50.872;5.306;2023-06-14T00:37:36;9.85;;;6.13;;
63434;SDS011;68814;50.872;5.306;2023-06-14T00:40:02;7.82;;;5.68;;
63434;SDS011;68814;50.872;5.306;2023-06-14T00:42:29;12.90;;;6.10;;
63434;SDS011;68814;50.872;5.306;2023-06-14T00:44:55;7.22;;;5.90;;
63434;SDS011;68814;50.872;5.306;2023-06-14T00:47:20;10.45;;;6.43;;
63434;SDS011;68814;50.872;5.306;2023-06-14T00:49:46;8.95;;;6.20;;
63434;SDS011;68814;50.872;5.306;2023-06-14T00:52:13;11.93;;;6.82;;
63434;SDS011;68814;50.872;5.306;2023-06-14T00:54:40;9.15;;;6.25;;
63434;SDS011;68814;50.872;5.306;2023-06-14T00:57:07;8.02;;;6.22;;
63434;SDS011;68814;50.872;5.306;2023-06-14T00:59:33;8.68;;;6.78;;
63434;SDS011;68814;50.872;5.306;2023-06-14T01:02:02;11.07;;;7.13;;
63434;SDS011;68814;50.872;5.306;2023-06-14T01:04:28;7.65;;;6.22;;
63434;SDS011;68814;50.872;5.306;2023-06-14T01:07:02;9.25;;;6.30;;
63434;SDS011;68814;50.872;5.306;2023-06-14T01:15:23;8.48;;;6.40;;
63434;SDS011;68814;50.872;5.306;2023-06-14T01:17:49;8.57;;;6.97;;
63434;SDS011;68814;50.872;5.306;2023-06-14T01:20:16;11.50;;;6.78;;
63434;SDS011;68814;50.872;5.306;2023-06-14T01:22:50;10.02;;;7.05;;
63434;SDS011;68814;50.872;5.306;2023-06-14T01:25:17;11.85;;;7.25;;
63434;SDS011;68814;50.872;5.306;2023-06-14T01:27:45;9.75;;;6.85;;
63434;SDS011;68814;50.872;5.306;2023-06-14T01:30:13;7.45;;;6.63;;
63434;SDS011;68814;50.872;5.306;2023-06-14T01:32:39;8.32;;;6.60;;
63434;SDS011;68814;50.872;5.306;2023-06-14T01:35:05;13.65;;;7.30;;
63434;SDS011;68814;50.872;5.306;2023-06-14T01:37:31;7.63;;;6.85;;
63434;SDS011;68814;50.872;5.306;2023-06-14T01:39:57;8.43;;;6.90;;
63434;SDS011;68814;50.872;5.306;2023-06-14T01:42:24;9.90;;;7.60;;
63434;SDS011;68814;50.872;5.306;2023-06-14T01:44:50;11.13;;;7.63;;
63434;SDS011;68814;50.872;5.306;2023-06-14T01:47:17;10.57;;;7.60;;
63434;SDS011;68814;50.872;5.306;2023-06-14T01:49:43;10.50;;;7.45;;
63434;SDS011;68814;50.872;5.306;2023-06-14T01:52:10;8.70;;;7.40;;
63434;SDS011;68814;50.872;5.306;2023-06-14T01:54:36;12.10;;;7.47;;
63434;SDS011;68814;50.872;5.306;2023-06-14T01:57:06;9.20;;;7.30;;
63434;SDS011;68814;50.872;5.306;2023-06-14T01:59:33;11.05;;;8.15;;
63434;SDS011;68814;50.872;5.306;2023-06-14T02:02:00;14.57;;;7.82;;
63434;SDS011;68814;50.872;5.306;2023-06-14T02:04:27;10.00;;;7.30;;
63434;SDS011;68814;50.872;5.306;2023-06-14T02:06:53;9.40;;;7.35;;
63434;SDS011;68814;50.872;5.306;2023-06-14T02:09:18;10.75;;;7.40;;
63434;SDS011;68814;50.872;5.306;2023-06-14T02:11:44;10.48;;;7.63;;
63434;SDS011;68814;50.872;5.306;2023-06-14T02:14:10;16.73;;;9.10;;
63434;SDS011;68814;50.872;5.306;2023-06-14T02:16:37;11.18;;;7.32;;
63434;SDS011;68814;50.872;5.306;2023-06-14T02:19:04;9.63;;;7.60;;
63434;SDS011;68814;50.872;5.306;2023-06-14T02:21:30;10.02;;;7.85;;
63434;SDS011;68814;50.872;5.306;2023-06-14T02:23:55;10.10;;;7.55;;
63434;SDS011;68814;50.872;5.306;2023-06-14T02:26:21;12.63;;;8.45;;
63434;SDS011;68814;50.872;5.306;2023-06-14T02:28:50;8.70;;;7.55;;
63434;SDS011;68814;50.872;5.306;2023-06-14T02:31:16;13.63;;;7.72;;
63434;SDS011;68814;50.872;5.306;2023-06-14T02:33:41;11.00;;;7.88;;
63434;SDS011;68814;50.872;5.306;2023-06-14T02:36:07;12.25;;;7.80;;
63434;SDS011;68814;50.872;5.306;2023-06-14T02:38:33;10.68;;;7.55;;
63434;SDS011;68814;50.872;5.306;2023-06-14T02:40:58;8.27;;;7.35;;
63434;SDS011;68814;50.872;5.306;2023-06-14T02:43:28;11.15;;;7.78;;
63434;SDS011;68814;50.872;5.306;2023-06-14T02:45:54;11.25;;;7.88;;
63434;SDS011;68814;50.872;5.306;2023-06-14T02:48:20;20.27;;;9.07;;
63434;SDS011;68814;50.872;5.306;2023-06-14T02:50:45;10.13;;;7.55;;
63434;SDS011;68814;50.872;5.306;2023-06-14T02:53:11;12.52;;;7.70;;
63434;SDS011;68814;50.872;5.306;2023-06-14T02:55:37;9.73;;;7.45;;
63434;SDS011;68814;50.872;5.306;2023-06-14T02:58:04;11.90;;;9.20;;
63434;SDS011;68814;50.872;5.306;2023-06-14T03:00:31;11.32;;;8.20;;
63434;SDS011;68814;50.872;5.306;2023-06-14T03:02:56;11.32;;;8.02;;
63434;SDS011;68814;50.872;5.306;2023-06-14T03:05:22;12.60;;;8.50;;
63434;SDS011;68814;50.872;5.306;2023-06-14T03:07:48;13.52;;;8.55;;
63434;SDS011;68814;50.872;5.306;2023-06-14T03:10:15;11.25;;;8.10;;
63434;SDS011;68814;50.872;5.306;2023-06-14T03:12:41;11.23;;;8.73;;
63434;SDS011;68814;50.872;5.306;2023-06-14T03:15:07;14.35;;;9.10;;
63434;SDS011;68814;50.872;5.306;2023-06-14T03:17:34;13.70;;;8.63;;
63434;SDS011;68814;50.872;5.306;2023-06-14T03:20:00;12.07;;;7.55;;
63434;SDS011;68814;50.872;5.306;2023-06-14T03:22:26;10.27;;;7.72;;
63434;SDS011;68814;50.872;5.306;2023-06-14T03:24:53;14.15;;;8.68;;
63434;SDS011;68814;50.872;5.306;2023-06-14T03:27:19;12.40;;;8.82;;
63434;SDS011;68814;50.872;5.306;2023-06-14T03:29:44;12.30;;;8.82;;
63434;SDS011;68814;50.872;5.306;2023-06-14T03:32:11;13.05;;;8.27;;
63434;SDS011;68814;50.872;5.306;2023-06-14T03:34:37;10.45;;;8.40;;
63434;SDS011;68814;50.872;5.306;2023-06-14T03:37:06;11.88;;;8.75;;
63434;SDS011;68814;50.872;5.306;2023-06-14T03:39:31;11.80;;;8.15;;
63434;SDS011;68814;50.872;5.306;2023-06-14T03:41:57;12.02;;;8.73;;
63434;SDS011;68814;50.872;5.306;2023-06-14T03:44:24;12.55;;;8.73;;
63434;SDS011;68814;50.872;5.306;2023-06-14T03:46:52;16.23;;;9.55;;
63434;SDS011;68814;50.872;5.306;2023-06-14T03:49:18;11.43;;;8.77;;
63434;SDS011;68814;50.872;5.306;2023-06-14T03:51:43;10.10;;;8.77;;
63434;SDS011;68814;50.872;5.306;2023-06-14T03:54:09;12.38;;;8.88;;
63434;SDS011;68814;50.872;5.306;2023-06-14T03:56:35;19.98;;;10.07;;
63434;SDS011;68814;50.872;5.306;2023-06-14T03:59:01;14.25;;;9.55;;
63434;SDS011;68814;50.872;5.306;2023-06-14T04:01:27;12.32;;;9.05;;
63434;SDS011;68814;50.872;5.306;2023-06-14T04:03:55;12.73;;;8.15;;
63434;SDS011;68814;50.872;5.306;2023-06-14T04:06:22;12.07;;;9.00;;
63434;SDS011;68814;50.872;5.306;2023-06-14T04:08:49;14.65;;;9.05;;
63434;SDS011;68814;50.872;5.306;2023-06-14T04:11:16;13.85;;;9.13;;
63434;SDS011;68814;50.872;5.306;2023-06-14T04:13:42;11.15;;;8.02;;
63434;SDS011;68814;50.872;5.306;2023-06-14T04:16:08;14.55;;;8.23;;
63434;SDS011;68814;50.872;5.306;2023-06-14T04:18:33;12.63;;;8.57;;
63434;SDS011;68814;50.872;5.306;2023-06-14T04:20:59;15.25;;;8.65;;
63434;SDS011;68814;50.872;5.306;2023-06-14T04:23:25;15.20;;;9.73;;
63434;SDS011;68814;50.872;5.306;2023-06-14T04:25:53;11.32;;;8.63;;
63434;SDS011;68814;50.872;5.306;2023-06-14T04:28:18;11.52;;;9.02;;
63434;SDS011;68814;50.872;5.306;2023-06-14T04:30:44;15.90;;;8.50;;
63434;SDS011;68814;50.872;5.306;2023-06-14T04:33:12;11.23;;;8.65;;
63434;SDS011;68814;50.872;5.306;2023-06-14T04:35:38;13.88;;;9.25;;
63434;SDS011;68814;50.872;5.306;2023-06-14T04:38:05;16.77;;;9.45;;
63434;SDS011;68814;50.872;5.306;2023-06-14T04:40:34;15.40;;;9.85;;
63434;SDS011;68814;50.872;5.306;2023-06-14T04:43:01;15.48;;;9.70;;
63434;SDS011;68814;50.872;5.306;2023-06-14T04:45:31;13.68;;;9.85;;
63434;SDS011;68814;50.872;5.306;2023-06-14T04:47:58;13.88;;;9.85;;
63434;SDS011;68814;50.872;5.306;2023-06-14T04:50:24;25.02;;;10.02;;
63434;SDS011;68814;50.872;5.306;2023-06-14T04:52:50;19.70;;;10.65;;
63434;SDS011;68814;50.872;5.306;2023-06-14T04:55:16;12.57;;;9.45;;
63434;SDS011;68814;50.872;5.306;2023-06-14T04:57:44;14.18;;;10.60;;
63434;SDS011;68814;50.872;5.306;2023-06-14T05:00:10;14.05;;;9.70;;
63434;SDS011;68814;50.872;5.306;2023-06-14T05:02:36;16.85;;;10.10;;
63434;SDS011;68814;50.872;5.306;2023-06-14T05:05:03;16.02;;;9.98;;
63434;SDS011;68814;50.872;5.306;2023-06-14T05:07:32;16.13;;;9.95;;
63434;SDS011;68814;50.872;5.306;2023-06-14T05:09:58;15.65;;;10.20;;
63434;SDS011;68814;50.872;5.306;2023-06-14T05:12:24;26.45;;;10.95;;
63434;SDS011;68814;50.872;5.306;2023-06-14T05:14:50;16.77;;;10.45;;
63434;SDS011;68814;50.872;5.306;2023-06-14T05:17:15;13.43;;;10.20;;
63434;SDS011;68814;50.872;5.306;2023-06-14T05:19:42;16.55;;;11.02;;
63434;SDS011;68814;50.872;5.306;2023-06-14T05:22:07;16.80;;;11.23;;
63434;SDS011;68814;50.872;5.306;2023-06-14T05:24:33;22.70;;;11.52;;
63434;SDS011;68814;50.872;5.306;2023-06-14T05:26:59;19.73;;;11.10;;
63434;SDS011;68814;50.872;5.306;2023-06-14T05:29:25;18.02;;;10.70;;
63434;SDS011;68814;50.872;5.306;2023-06-14T05:31:52;14.90;;;10.82;;
63434;SDS011;68814;50.872;5.306;2023-06-14T05:34:18;17.20;;;10.90;;
63434;SDS011;68814;50.872;5.306;2023-06-14T05:36:43;16.77;;;11.40;;
63434;SDS011;68814;50.872;5.306;2023-06-14T05:39:10;20.90;;;11.20;;
63434;SDS011;68814;50.872;5.306;2023-06-14T05:41:35;14.82;;;11.40;;
63434;SDS011;68814;50.872;5.306;2023-06-14T05:44:01;18.55;;;10.93;;
63434;SDS011;68814;50.872;5.306;2023-06-14T05:46:27;17.60;;;11.60;;
63434;SDS011;68814;50.872;5.306;2023-06-14T05:48:53;16.52;;;11.20;;
63434;SDS011;68814;50.872;5.306;2023-06-14T05:51:20;15.73;;;11.32;;
63434;SDS011;68814;50.872;5.306;2023-06-14T05:53:46;19.98;;;10.80;;
63434;SDS011;68814;50.872;5.306;2023-06-14T05:56:12;22.10;;;10.98;;
63434;SDS011;68814;50.872;5.306;2023-06-14T05:58:38;15.77;;;10.27;;
63434;SDS011;68814;50.872;5.306;2023-06-14T06:01:04;18.92;;;10.98;;
63434;SDS011;68814;50.872;5.306;2023-06-14T06:03:30;22.55;;;10.52;;
63434;SDS011;68814;50.872;5.306;2023-06-14T06:05:55;17.45;;;10.48;;
63434;SDS011;68814;50.872;5.306;2023-06-14T06:08:21;16.27;;;9.60;;
63434;SDS011;68814;50.872;5.306;2023-06-14T06:10:47;15.60;;;8.80;;
63434;SDS011;68814;50.872;5.306;2023-06-14T06:13:12;17.40;;;8.52;;
63434;SDS011;68814;50.872;5.306;2023-06-14T06:15:38;18.13;;;9.43;;
63434;SDS011;68814;50.872;5.306;2023-06-14T06:18:04;14.88;;;8.40;;
63434;SDS011;68814;50.872;5.306;2023-06-14T06:20:29;17.90;;;8.15;;
63434;SDS011;68814;50.872;5.306;2023-06-14T06:22:59;18.65;;;7.82;;
63434;SDS011;68814;50.872;5.306;2023-06-14T06:25:26;15.32;;;8.07;;
63434;SDS011;68814;50.872;5.306;2023-06-14T06:27:52;14.93;;;7.47;;
63434;SDS011;68814;50.872;5.306;2023-06-14T06:30:23;14.95;;;8.00;;
63434;SDS011;68814;50.872;5.306;2023-06-14T06:32:50;15.07;;;7.35;;
63434;SDS011;68814;50.872;5.306;2023-06-14T06:35:16;14.80;;;7.35;;
63434;SDS011;68814;50.872;5.306;2023-06-14T06:37:42;12.93;;;7.20;;
63434;SDS011;68814;50.872;5.306;2023-06-14T06:40:08;15.88;;;7.10;;
63434;SDS011;68814;50.872;5.306;2023-06-14T06:42:34;11.05;;;7.07;;
63434;SDS011;68814;50.872;5.306;2023-06-14T06:45:00;13.02;;;6.72;;
63434;SDS011;68814;50.872;5.306;2023-06-14T06:47:26;9.85;;;6.50;;
63434;SDS011;68814;50.872;5.306;2023-06-14T06:49:52;10.95;;;7.05;;
63434;SDS011;68814;50.872;5.306;2023-06-14T06:52:18;12.30;;;6.97;;
63434;SDS011;68814;50.872;5.306;2023-06-14T06:54:43;13.73;;;6.18;;
63434;SDS011;68814;50.872;5.306;2023-06-14T06:57:09;10.07;;;6.60;;
63434;SDS011;68814;50.872;5.306;2023-06-14T06:59:36;8.75;;;5.88;;
63434;SDS011;68814;50.872;5.306;2023-06-14T07:02:01;15.02;;;6.82;;
63434;SDS011;68814;50.872;5.306;2023-06-14T07:04:27;12.95;;;5.97;;
63434;SDS011;68814;50.872;5.306;2023-06-14T07:06:53;15.55;;;6.57;;
63434;SDS011;68814;50.872;5.306;2023-06-14T07:09:18;14.98;;;7.07;;
63434;SDS011;68814;50.872;5.306;2023-06-14T07:11:44;12.20;;;6.88;;
63434;SDS011;68814;50.872;5.306;2023-06-14T07:14:10;12.10;;;6.13;;
63434;SDS011;68814;50.872;5.306;2023-06-14T07:16:37;9.77;;;6.05;;
63434;SDS011;68814;50.872;5.306;2023-06-14T07:19:03;13.02;;;6.25;;
63434;SDS011;68814;50.872;5.306;2023-06-14T07:21:29;12.10;;;6.45;;
63434;SDS011;68814;50.872;5.306;2023-06-14T07:23:55;10.40;;;6.22;;
63434;SDS011;68814;50.872;5.306;2023-06-14T07:26:21;13.60;;;6.93;;
63434;SDS011;68814;50.872;5.306;2023-06-14T07:28:47;14.60;;;6.30;;
63434;SDS011;68814;50.872;5.306;2023-06-14T07:31:14;16.38;;;6.35;;
63434;SDS011;68814;50.872;5.306;2023-06-14T07:33:41;12.18;;;6.55;;
63434;SDS011;68814;50.872;5.306;2023-06-14T07:36:07;11.65;;;5.72;;
63434;SDS011;68814;50.872;5.306;2023-06-14T07:38:33;10.27;;;6.55;;
63434;SDS011;68814;50.872;5.306;2023-06-14T07:40:59;9.98;;;6.63;;
63434;SDS011;68814;50.872;5.306;2023-06-14T07:43:25;17.63;;;6.32;;
63434;SDS011;68814;50.872;5.306;2023-06-14T07:45:51;8.13;;;5.35;;
63434;SDS011;68814;50.872;5.306;2023-06-14T07:48:16;9.30;;;5.22;;
63434;SDS011;68814;50.872;5.306;2023-06-14T07:50:42;13.60;;;6.20;;
63434;SDS011;68814;50.872;5.306;2023-06-14T07:53:08;10.57;;;5.60;;
63434;SDS011;68814;50.872;5.306;2023-06-14T07:55:33;14.10;;;5.22;;
63434;SDS011;68814;50.872;5.306;2023-06-14T07:58:02;12.93;;;6.07;;
63434;SDS011;68814;50.872;5.306;2023-06-14T08:00:33;16.48;;;5.40;;
63434;SDS011;68814;50.872;5.306;2023-06-14T08:02:59;10.27;;;4.97;;
63434;SDS011;68814;50.872;5.306;2023-06-14T08:05:25;11.75;;;5.75;;
63434;SDS011;68814;50.872;5.306;2023-06-14T08:07:51;5.97;;;5.15;;
63434;SDS011;68814;50.872;5.306;2023-06-14T08:10:17;6.18;;;4.88;;
63434;SDS011;68814;50.872;5.306;2023-06-14T08:12:43;7.18;;;4.70;;
63434;SDS011;68814;50.872;5.306;2023-06-14T08:15:08;10.13;;;4.75;;
63434;SDS011;68814;50.872;5.306;2023-06-14T08:17:34;6.72;;;4.78;;
63434;SDS011;68814;50.872;5.306;2023-06-14T08:20:00;7.50;;;4.78;;
63434;SDS011;68814;50.872;5.306;2023-06-14T08:22:26;9.85;;;4.60;;
63434;SDS011;68814;50.872;5.306;2023-06-14T08:24:53;12.43;;;6.28;;
63434;SDS011;68814;50.872;5.306;2023-06-14T08:27:19;9.55;;;5.78;;
63434;SDS011;68814;50.872;5.306;2023-06-14T08:29:45;12.73;;;6.57;;
63434;SDS011;68814;50.872;5.306;2023-06-14T08:32:11;11.48;;;5.50;;
63434;SDS011;68814;50.872;5.306;2023-06-14T08:34:37;13.35;;;5.05;;
63434;SDS011;68814;50.872;5.306;2023-06-14T08:37:03;13.27;;;4.85;;
63434;SDS011;68814;50.872;5.306;2023-06-14T08:39:30;8.65;;;4.22;;
63434;SDS011;68814;50.872;5.306;2023-06-14T08:41:56;6.65;;;4.60;;
63434;SDS011;68814;50.872;5.306;2023-06-14T08:44:23;11.02;;;4.75;;
63434;SDS011;68814;50.872;5.306;2023-06-14T08:46:49;7.28;;;3.80;;
63434;SDS011;68814;50.872;5.306;2023-06-14T08:49:18;7.32;;;4.05;;
63434;SDS011;68814;50.872;5.306;2023-06-14T08:51:44;9.25;;;4.82;;
63434;SDS011;68814;50.872;5.306;2023-06-14T08:54:12;9.48;;;3.92;;
63434;SDS011;68814;50.872;5.306;2023-06-14T08:56:39;8.90;;;3.95;;
63434;SDS011;68814;50.872;5.306;2023-06-14T08:59:06;9.60;;;4.20;;
63434;SDS011;68814;50.872;5.306;2023-06-14T09:01:34;5.90;;;3.67;;
63434;SDS011;68814;50.872;5.306;2023-06-14T09:04:02;6.85;;;3.95;;
63434;SDS011;68814;50.872;5.306;2023-06-14T09:06:30;13.07;;;4.10;;
63434;SDS011;68814;50.872;5.306;2023-06-14T09:08:56;12.55;;;3.53;;
63434;SDS011;68814;50.872;5.306;2023-06-14T09:11:22;8.70;;;3.58;;
63434;SDS011;68814;50.872;5.306;2023-06-14T09:13:48;10.70;;;3.75;;
63434;SDS011;68814;50.872;5.306;2023-06-14T09:16:15;6.07;;;3.45;;
63434;SDS011;68814;50.872;5.306;2023-06-14T09:18:42;9.65;;;3.50;;
63434;SDS011;68814;50.872;5.306;2023-06-14T09:21:10;10.65;;;4.00;;
63434;SDS011;68814;50.872;5.306;2023-06-14T09:23:37;6.90;;;3.80;;
63434;SDS011;68814;50.872;5.306;2023-06-14T09:26:13;14.85;;;3.58;;
63434;SDS011;68814;50.872;5.306;2023-06-14T09:28:41;8.30;;;3.75;;
63434;SDS011;68814;50.872;5.306;2023-06-14T09:31:07;6.90;;;3.70;;
63434;SDS011;68814;50.872;5.306;2023-06-14T09:33:34;8.00;;;4.15;;
63434;SDS011;68814;50.872;5.306;2023-06-14T09:36:00;13.70;;;4.05;;
63434;SDS011;68814;50.872;5.306;2023-06-14T09:38:26;5.30;;;3.38;;
63434;SDS011;68814;50.872;5.306;2023-06-14T09:40:52;6.55;;;3.50;;
63434;SDS011;68814;50.872;5.306;2023-06-14T09:43:17;6.38;;;2.95;;
63434;SDS011;68814;50.872;5.306;2023-06-14T09:45:44;9.48;;;3.20;;
63434;SDS011;68814;50.872;5.306;2023-06-14T09:48:13;6.45;;;3.30;;
63434;SDS011;68814;50.872;5.306;2023-06-14T09:50:44;14.85;;;3.53;;
63434;SDS011;68814;50.872;5.306;2023-06-14T09:53:11;5.95;;;2.88;;
63434;SDS011;68814;50.872;5.306;2023-06-14T09:55:38;8.18;;;2.97;;
63434;SDS011;68814;50.872;5.306;2023-06-14T09:58:06;10.80;;;2.78;;
63434;SDS011;68814;50.872;5.306;2023-06-14T10:00:33;5.70;;;2.72;;
63434;SDS011;68814;50.872;5.306;2023-06-14T10:03:21;5.22;;;2.40;;
63434;SDS011;68814;50.872;5.306;2023-06-14T10:05:47;7.13;;;2.60;;
63434;SDS011;68814;50.872;5.306;2023-06-14T10:08:19;8.30;;;3.10;;
63434;SDS011;68814;50.872;5.306;2023-06-14T10:10:51;6.05;;;2.55;;
63434;SDS011;68814;50.872;5.306;2023-06-14T10:13:17;5.95;;;2.30;;
63434;SDS011;68814;50.872;5.306;2023-06-14T10:19:34;5.25;;;2.20;;
63434;SDS011;68814;50.872;5.306;2023-06-14T10:24:03;4.82;;;2.15;;
63434;SDS011;68814;50.872;5.306;2023-06-14T10:26:32;3.47;;;2.25;;
63434;SDS011;68814;50.872;5.306;2023-06-14T10:29:01;5.50;;;2.30;;
63434;SDS011;68814;50.872;5.306;2023-06-14T10:34:08;3.38;;;1.80;;
63434;SDS011;68814;50.872;5.306;2023-06-14T10:36:37;4.90;;;2.22;;
63434;SDS011;68814;50.872;5.306;2023-06-14T10:39:07;4.63;;;2.30;;
63434;SDS011;68814;50.872;5.306;2023-06-14T10:41:39;5.00;;;2.47;;
63434;SDS011;68814;50.872;5.306;2023-06-14T10:46:40;8.43;;;1.90;;
63434;SDS011;68814;50.872;5.306;2023-06-14T10:49:11;4.47;;;2.33;;
63434;SDS011;68814;50.872;5.306;2023-06-14T10:51:40;6.05;;;2.20;;
63434;SDS011;68814;50.872;5.306;2023-06-14T10:54:13;4.93;;;2.00;;
63434;SDS011;68814;50.872;5.306;2023-06-14T10:56:43;5.57;;;2.03;;
63434;SDS011;68814;50.872;5.306;2023-06-14T10:59:15;4.03;;;1.65;;
63434;SDS011;68814;50.872;5.306;2023-06-14T11:04:44;6.53;;;2.03;;
63434;SDS011;68814;50.872;5.306;2023-06-14T11:07:58;4.10;;;2.47;;
63434;SDS011;68814;50.872;5.306;2023-06-14T11:12:48;3.22;;;2.17;;
63434;SDS011;68814;50.872;5.306;2023-06-14T11:15:14;2.85;;;1.92;;
63434;SDS011;68814;50.872;5.306;2023-06-14T11:17:49;5.28;;;2.03;;
63434;SDS011;68814;50.872;5.306;2023-06-14T11:20:24;6.55;;;2.15;;
63434;SDS011;68814;50.872;5.306;2023-06-14T11:22:51;5.57;;;2.40;;
63434;SDS011;68814;50.872;5.306;2023-06-14T11:25:17;2.40;;;1.90;;
63434;SDS011;68814;50.872;5.306;2023-06-14T11:27:43;3.58;;;1.73;;
63434;SDS011;68814;50.872;5.306;2023-06-14T11:30:10;3.88;;;1.65;;
63434;SDS011;68814;50.872;5.306;2023-06-14T11:32:36;5.90;;;1.90;;
63434;SDS011;68814;50.872;5.306;2023-06-14T11:35:03;6.32;;;2.33;;
63434;SDS011;68814;50.872;5.306;2023-06-14T11:37:30;8.05;;;1.63;;
63434;SDS011;68814;50.872;5.306;2023-06-14T11:39:56;2.97;;;1.80;;
63434;SDS011;68814;50.872;5.306;2023-06-14T11:42:22;4.35;;;1.90;;
63434;SDS011;68814;50.872;5.306;2023-06-14T11:44:49;4.00;;;1.70;;
63434;SDS011;68814;50.872;5.306;2023-06-14T11:47:15;3.75;;;1.80;;
63434;SDS011;68814;50.872;5.306;2023-06-14T11:49:41;3.30;;;1.38;;
63434;SDS011;68814;50.872;5.306;2023-06-14T11:52:07;2.80;;;1.10;;
63434;SDS011;68814;50.872;5.306;2023-06-14T11:54:32;2.00;;;1.00;;
63434;SDS011;68814;50.872;5.306;2023-06-14T11:56:58;1.35;;;1.17;;
63434;SDS011;68814;50.872;5.306;2023-06-14T11:59:24;2.20;;;1.10;;
63434;SDS011;68814;50.872;5.306;2023-06-14T12:01:50;1.60;;;1.20;;
63434;SDS011;68814;50.872;5.306;2023-06-14T12:04:28;6.53;;;1.20;;
63434;SDS011;68814;50.872;5.306;2023-06-14T12:06:55;2.35;;;1.10;;
63434;SDS011;68814;50.872;5.306;2023-06-14T12:09:22;1.33;;;0.90;;
63434;SDS011;68814;50.872;5.306;2023-06-14T12:11:50;3.88;;;1.20;;
63434;SDS011;68814;50.872;5.306;2023-06-14T12:14:28;2.53;;;0.82;;
63434;SDS011;68814;50.872;5.306;2023-06-14T12:17:03;2.57;;;0.80;;
63434;SDS011;68814;50.872;5.306;2023-06-14T12:19:31;1.50;;;0.95;;
63434;SDS011;68814;50.872;5.306;2023-06-14T12:21:57;3.35;;;1.10;;
63434;SDS011;68814;50.872;5.306;2023-06-14T12:24:29;2.53;;;1.10;;
63434;SDS011;68814;50.872;5.306;2023-06-14T12:26:57;8.18;;;1.00;;
63434;SDS011;68814;50.872;5.306;2023-06-14T12:29:24;1.98;;;1.10;;
63434;SDS011;68814;50.872;5.306;2023-06-14T12:31:50;4.57;;;1.13;;
63434;SDS011;68814;50.872;5.306;2023-06-14T12:34:18;2.30;;;1.15;;
63434;SDS011;68814;50.872;5.306;2023-06-14T12:36:44;2.38;;;0.90;;
63434;SDS011;68814;50.872;5.306;2023-06-14T12:39:11;2.47;;;1.10;;
63434;SDS011;68814;50.872;5.306;2023-06-14T12:41:37;1.50;;;0.80;;
63434;SDS011;68814;50.872;5.306;2023-06-14T12:44:03;3.78;;;1.25;;
63434;SDS011;68814;50.872;5.306;2023-06-14T12:46:30;7.10;;;1.48;;
63434;SDS011;68814;50.872;5.306;2023-06-14T12:48:57;2.30;;;1.13;;
63434;SDS011;68814;50.872;5.306;2023-06-14T12:51:22;2.45;;;1.10;;
63434;SDS011;68814;50.872;5.306;2023-06-14T12:53:48;1.20;;;1.00;;
63434;SDS011;68814;50.872;5.306;2023-06-14T12:56:14;4.45;;;1.23;;
63434;SDS011;68814;50.872;5.306;2023-06-14T12:58:41;5.03;;;1.00;;
63434;SDS011;68814;50.872;5.306;2023-06-14T13:01:07;4.90;;;1.10;;
63434;SDS011;68814;50.872;5.306;2023-06-14T13:03:32;1.73;;;1.15;;
63434;SDS011;68814;50.872;5.306;2023-06-14T13:06:01;3.47;;;0.90;;
63434;SDS011;68814;50.872;5.306;2023-06-14T13:08:29;3.95;;;1.15;;
63434;SDS011;68814;50.872;5.306;2023-06-14T13:10:55;3.38;;;1.30;;
63434;SDS011;68814;50.872;5.306;2023-06-14T13:13:21;1.55;;;1.00;;
63434;SDS011;68814;50.872;5.306;2023-06-14T13:15:46;2.33;;;1.13;;
63434;SDS011;68814;50.872;5.306;2023-06-14T13:18:14;2.67;;;1.10;;
63434;SDS011;68814;50.872;5.306;2023-06-14T13:20:39;1.20;;;0.93;;
63434;SDS011;68814;50.872;5.306;2023-06-14T13:23:05;2.20;;;1.10;;
63434;SDS011;68814;50.872;5.306;2023-06-14T13:25:32;1.33;;;0.95;;
63434;SDS011;68814;50.872;5.306;2023-06-14T13:27:59;4.80;;;1.30;;
63434;SDS011;68814;50.872;5.306;2023-06-14T13:30:25;4.03;;;1.13;;
63434;SDS011;68814;50.872;5.306;2023-06-14T13:32:50;2.65;;;1.10;;
63434;SDS011;68814;50.872;5.306;2023-06-14T13:35:17;7.00;;;1.30;;
63434;SDS011;68814;50.872;5.306;2023-06-14T13:37:46;2.90;;;1.40;;
63434;SDS011;68814;50.872;5.306;2023-06-14T13:40:12;3.53;;;1.08;;
63434;SDS011;68814;50.872;5.306;2023-06-14T13:42:38;2.65;;;1.25;;
63434;SDS011;68814;50.872;5.306;2023-06-14T13:45:05;1.52;;;1.00;;
63434;SDS011;68814;50.872;5.306;2023-06-14T13:47:31;2.63;;;1.15;;
63434;SDS011;68814;50.872;5.306;2023-06-14T13:49:57;2.45;;;1.33;;
63434;SDS011;68814;50.872;5.306;2023-06-14T13:52:23;4.47;;;1.02;;
63434;SDS011;68814;50.872;5.306;2023-06-14T13:54:49;4.65;;;0.95;;
63434;SDS011;68814;50.872;5.306;2023-06-14T13:57:15;2.45;;;1.00;;
63434;SDS011;68814;50.872;5.306;2023-06-14T13:59:41;2.45;;;1.00;;
63434;SDS011;68814;50.872;5.306;2023-06-14T14:02:09;3.28;;;1.30;;
63434;SDS011;68814;50.872;5.306;2023-06-14T14:04:34;2.83;;;1.10;;
63434;SDS011;68814;50.872;5.306;2023-06-14T14:07:01;3.13;;;1.25;;
63434;SDS011;68814;50.872;5.306;2023-06-14T14:09:30;3.83;;;1.63;;
63434;SDS011;68814;50.872;5.306;2023-06-14T14:11:57;3.30;;;1.17;;
63434;SDS011;68814;50.872;5.306;2023-06-14T14:14:23;2.72;;;1.45;;
63434;SDS011;68814;50.872;5.306;2023-06-14T14:16:49;3.13;;;0.90;;
63434;SDS011;68814;50.872;5.306;2023-06-14T14:19:16;3.10;;;1.10;;
63434;SDS011;68814;50.872;5.306;2023-06-14T14:21:44;2.22;;;1.17;;
63434;SDS011;68814;50.872;5.306;2023-06-14T14:24:10;2.95;;;1.42;;
63434;SDS011;68814;50.872;5.306;2023-06-14T14:26:36;1.75;;;0.98;;
63434;SDS011;68814;50.872;5.306;2023-06-14T14:29:01;1.92;;;1.05;;
63434;SDS011;68814;50.872;5.306;2023-06-14T14:31:27;3.83;;;1.05;;
63434;SDS011;68814;50.872;5.306;2023-06-14T14:33:53;3.03;;;1.10;;
63434;SDS011;68814;50.872;5.306;2023-06-14T14:36:19;3.60;;;1.27;;
63434;SDS011;68814;50.872;5.306;2023-06-14T14:38:45;3.10;;;1.00;;
63434;SDS011;68814;50.872;5.306;2023-06-14T14:41:12;3.70;;;1.13;;
63434;SDS011;68814;50.872;5.306;2023-06-14T14:43:37;3.00;;;1.05;;
63434;SDS011;68814;50.872;5.306;2023-06-14T14:46:03;6.00;;;1.50;;
63434;SDS011;68814;50.872;5.306;2023-06-14T14:48:29;1.58;;;1.00;;
63434;SDS011;68814;50.872;5.306;2023-06-14T14:50:55;0.80;;;0.77;;
63434;SDS011;68814;50.872;5.306;2023-06-14T14:53:20;7.30;;;1.00;;
63434;SDS011;68814;50.872;5.306;2023-06-14T14:55:46;4.90;;;0.85;;
63434;SDS011;68814;50.872;5.306;2023-06-14T14:58:12;1.88;;;0.90;;
63434;SDS011;68814;50.872;5.306;2023-06-14T15:00:38;1.52;;;0.80;;